createdAt,value
2022-11-29T00:00:12.356Z,0.19
2022-11-29T00:01:17.922Z,0.20
2022-11-29T00:02:19.412Z,0.22
2022-11-29T00:03:20.924Z,0.20
2022-11-29T00:04:22.337Z,0.25
2022-11-29T00:05:23.694Z,0.23
2022-11-29T00:06:26.362Z,0.13
2022-11-29T00:07:27.771Z,0.07
2022-11-29T00:08:29.273Z,-0.01
2022-11-29T00:09:30.637Z,-0.02
2022-11-29T00:10:32.024Z,-0.02
2022-11-29T00:11:34.604Z,-0.02
2022-11-29T00:12:35.981Z,-0.02
2022-11-29T00:13:37.780Z,-0.04
2022-11-29T00:14:39.278Z,-0.05
2022-11-29T00:15:40.665Z,-0.06
2022-11-29T00:16:42.533Z,-0.08
2022-11-29T00:17:43.917Z,-0.06
2022-11-29T00:18:45.286Z,-0.03
2022-11-29T00:19:46.622Z,-0.01
2022-11-29T00:20:47.979Z,0.03
2022-11-29T00:21:49.349Z,0.05
2022-11-29T00:22:50.682Z,0.08
2022-11-29T00:23:52.038Z,0.10
2022-11-29T00:24:53.404Z,0.11
2022-11-29T00:25:54.763Z,0.09
2022-11-29T00:26:56.111Z,0.13
2022-11-29T00:27:57.481Z,0.13
2022-11-29T00:28:58.911Z,0.19
2022-11-29T00:30:00.297Z,0.08
2022-11-29T00:31:11.969Z,0.08
2022-11-29T00:32:13.404Z,0.11
2022-11-29T00:33:14.794Z,0.12
2022-11-29T00:34:16.164Z,0.14
2022-11-29T00:35:17.608Z,0.07
2022-11-29T00:36:19.461Z,0.06
2022-11-29T00:37:20.797Z,0.08
2022-11-29T00:38:22.178Z,0.05
2022-11-29T00:39:23.571Z,0.10
2022-11-29T00:40:24.939Z,0.10
2022-11-29T00:41:26.427Z,0.13
2022-11-29T00:42:27.845Z,0.10
2022-11-29T00:43:29.222Z,0.09
2022-11-29T00:44:30.574Z,0.07
2022-11-29T00:45:32.037Z,-0.08
2022-11-29T00:46:33.753Z,-0.18
2022-11-29T00:47:35.128Z,-0.24
2022-11-29T00:48:37.040Z,-0.38
2022-11-29T00:49:38.437Z,-0.43
2022-11-29T00:50:39.829Z,-0.49
2022-11-29T00:51:41.230Z,-0.50
2022-11-29T00:52:42.599Z,-0.48
2022-11-29T00:53:43.960Z,-0.44
2022-11-29T00:54:45.728Z,-0.41
2022-11-29T00:55:47.730Z,-0.41
2022-11-29T00:56:49.096Z,-0.34
2022-11-29T00:57:50.492Z,-0.31
2022-11-29T00:58:51.915Z,-0.28
2022-11-29T00:59:53.285Z,-0.24
2022-11-29T01:00:55.019Z,-0.22
2022-11-29T01:01:56.513Z,-0.18
2022-11-29T01:02:57.887Z,-0.18
2022-11-29T01:04:00.225Z,-0.15
2022-11-29T01:05:01.579Z,-0.18
2022-11-29T01:06:04.509Z,-0.16
2022-11-29T01:07:05.869Z,-0.08
2022-11-29T01:08:07.254Z,-0.03
2022-11-29T01:09:08.646Z,0.03
2022-11-29T01:10:10.109Z,0.05
2022-11-29T01:11:13.457Z,0.03
2022-11-29T01:12:14.849Z,0.06
2022-11-29T01:13:16.225Z,0.06
2022-11-29T01:14:17.557Z,0.06
2022-11-29T01:15:18.960Z,0.08
2022-11-29T01:16:20.512Z,0.11
2022-11-29T01:17:21.917Z,0.13
2022-11-29T01:18:23.555Z,0.14
2022-11-29T01:19:24.937Z,0.17
2022-11-29T01:20:26.321Z,0.20
2022-11-29T01:21:27.929Z,0.22
2022-11-29T01:22:29.343Z,0.25
2022-11-29T01:23:30.824Z,0.27
2022-11-29T01:24:32.258Z,0.30
2022-11-29T01:25:33.638Z,0.31
2022-11-29T01:26:35.005Z,0.31
2022-11-29T01:27:36.401Z,0.32
2022-11-29T01:28:38.102Z,0.35
2022-11-29T01:29:39.464Z,0.34
2022-11-29T01:30:40.879Z,0.30
2022-11-29T01:31:42.469Z,0.20
2022-11-29T01:32:43.844Z,0.22
2022-11-29T01:33:45.278Z,0.25
2022-11-29T01:34:46.891Z,0.26
2022-11-29T01:35:51.404Z,0.26
2022-11-29T01:36:52.860Z,0.28
2022-11-29T01:37:54.201Z,0.29
2022-11-29T01:38:55.623Z,0.31
2022-11-29T01:39:56.986Z,0.34
2022-11-29T01:41:06.317Z,0.36
2022-11-29T01:42:10.044Z,0.38
2022-11-29T01:43:20.566Z,0.34
2022-11-29T01:44:21.893Z,0.35
2022-11-29T01:45:26.000Z,0.38
2022-11-29T01:46:29.029Z,0.32
2022-11-29T01:47:30.595Z,0.30
2022-11-29T01:48:32.706Z,0.32
2022-11-29T01:49:36.031Z,0.33
2022-11-29T01:50:38.555Z,0.36
2022-11-29T01:51:42.096Z,0.37
2022-11-29T01:52:44.067Z,0.40
2022-11-29T01:53:45.678Z,0.44
2022-11-29T01:54:48.336Z,0.47
2022-11-29T01:55:52.855Z,0.50
2022-11-29T01:56:54.437Z,0.53
2022-11-29T01:57:55.856Z,0.55
2022-11-29T01:58:57.345Z,0.57
2022-11-29T02:00:02.523Z,0.54
2022-11-29T02:01:14.413Z,0.57
2022-11-29T02:02:18.357Z,0.58
2022-11-29T02:03:19.780Z,0.58
2022-11-29T02:04:21.184Z,0.62
2022-11-29T02:05:23.228Z,0.63
2022-11-29T02:06:24.823Z,0.60
2022-11-29T02:07:26.271Z,0.59
2022-11-29T02:08:31.564Z,0.59
2022-11-29T02:09:32.943Z,0.63
2022-11-29T02:10:37.479Z,0.65
2022-11-29T02:11:38.845Z,0.69
2022-11-29T02:12:54.711Z,0.69
2022-11-29T02:13:56.063Z,0.70
2022-11-29T02:15:03.872Z,0.70
2022-11-29T02:16:12.731Z,0.73
2022-11-29T02:17:29.806Z,0.74
2022-11-29T02:18:43.296Z,0.78
2022-11-29T02:19:59.738Z,0.80
2022-11-29T02:21:01.057Z,0.83
2022-11-29T02:22:05.241Z,0.83
2022-11-29T02:23:25.265Z,0.86
2022-11-29T02:24:41.495Z,0.87
2022-11-29T02:26:01.680Z,0.79
2022-11-29T02:27:21.436Z,0.81
2022-11-29T02:28:38.065Z,0.83
2022-11-29T02:29:42.216Z,0.86
2022-11-29T02:30:55.222Z,0.90
2022-11-29T02:32:15.249Z,0.88
2022-11-29T02:33:31.395Z,0.87
2022-11-29T02:34:40.881Z,0.84
2022-11-29T02:35:49.698Z,0.87
2022-11-29T02:37:11.644Z,0.88
2022-11-29T02:38:28.533Z,0.84
2022-11-29T02:39:40.736Z,0.75
2022-11-29T02:41:00.289Z,0.73
2022-11-29T02:42:16.671Z,0.72
2022-11-29T02:43:36.749Z,0.75
2022-11-29T02:44:57.032Z,0.72
2022-11-29T02:46:07.704Z,0.73
2022-11-29T02:47:12.122Z,0.74
2022-11-29T02:48:23.574Z,0.70
2022-11-29T02:49:33.302Z,0.75
2022-11-29T02:50:55.134Z,0.75
2022-11-29T02:52:13.056Z,0.75
2022-11-29T02:53:20.357Z,0.77
2022-11-29T02:54:28.316Z,0.71
2022-11-29T02:55:55.237Z,0.70
2022-11-29T02:57:15.561Z,0.65
2022-11-29T02:58:25.129Z,0.58
2022-11-29T02:59:32.356Z,0.55
2022-11-29T03:00:35.465Z,0.59
2022-11-29T03:01:55.482Z,0.64
2022-11-29T03:03:03.188Z,0.67
2022-11-29T03:04:10.238Z,0.68
2022-11-29T03:05:14.347Z,0.69
2022-11-29T03:06:26.016Z,0.72
2022-11-29T03:07:37.696Z,0.72
2022-11-29T03:08:54.081Z,0.73
2022-11-29T03:10:14.280Z,0.72
2022-11-29T03:11:18.668Z,0.66
2022-11-29T03:12:31.031Z,0.67
2022-11-29T03:13:38.597Z,0.70
2022-11-29T03:14:58.539Z,0.72
2022-11-29T03:16:08.671Z,0.74
2022-11-29T03:17:13.029Z,0.77
2022-11-29T03:18:37.553Z,0.83
2022-11-29T03:19:55.345Z,0.86
2022-11-29T03:21:14.995Z,0.82
2022-11-29T03:22:39.639Z,0.76
2022-11-29T03:23:47.004Z,0.78
2022-11-29T03:25:07.021Z,0.82
2022-11-29T03:26:14.437Z,0.81
2022-11-29T03:27:26.906Z,0.81
2022-11-29T03:28:28.249Z,0.86
2022-11-29T03:29:33.246Z,0.87
2022-11-29T03:30:37.454Z,0.86
2022-11-29T03:31:42.894Z,0.87
2022-11-29T03:32:50.481Z,0.87
2022-11-29T03:33:51.813Z,0.90
2022-11-29T03:34:57.606Z,0.92
2022-11-29T03:36:04.401Z,0.94
2022-11-29T03:37:17.198Z,0.90
2022-11-29T03:38:33.878Z,0.87
2022-11-29T03:39:44.558Z,0.88
2022-11-29T03:40:57.431Z,0.88
2022-11-29T03:42:02.134Z,0.91
2022-11-29T03:43:09.017Z,0.88
2022-11-29T03:44:15.673Z,0.92
2022-11-29T03:45:23.125Z,0.92
2022-11-29T03:46:31.902Z,0.93
2022-11-29T03:47:55.633Z,0.95
2022-11-29T03:49:02.034Z,1.00
2022-11-29T03:50:06.850Z,0.99
2022-11-29T03:51:13.653Z,0.97
2022-11-29T03:52:47.529Z,0.92
2022-11-29T03:53:55.901Z,0.86
2022-11-29T03:55:03.465Z,0.88
2022-11-29T03:56:22.280Z,0.89
2022-11-29T03:57:30.933Z,0.89
2022-11-29T03:58:40.580Z,0.92
2022-11-29T03:59:51.092Z,0.89
2022-11-29T04:01:11.034Z,0.86
2022-11-29T04:02:31.031Z,0.78
2022-11-29T04:03:46.013Z,0.75
2022-11-29T04:04:47.592Z,0.78
2022-11-29T04:06:10.585Z,0.70
2022-11-29T04:07:30.455Z,0.64
2022-11-29T04:08:31.823Z,0.61
2022-11-29T04:09:42.501Z,0.62
2022-11-29T04:10:56.385Z,0.63
2022-11-29T04:11:57.742Z,0.57
2022-11-29T04:13:17.745Z,0.52
2022-11-29T04:14:39.404Z,0.53
2022-11-29T04:16:04.043Z,0.61
2022-11-29T04:17:18.376Z,0.63
2022-11-29T04:18:31.977Z,0.62
2022-11-29T04:19:45.751Z,0.61
2022-11-29T04:20:48.547Z,0.56
2022-11-29T04:21:49.988Z,0.60
2022-11-29T04:23:03.309Z,0.64
2022-11-29T04:24:36.286Z,0.72
2022-11-29T04:25:43.626Z,0.73
2022-11-29T04:26:51.228Z,0.70
2022-11-29T04:28:10.580Z,0.73
2022-11-29T04:29:41.290Z,0.79
2022-11-29T04:30:51.926Z,0.81
2022-11-29T04:31:59.461Z,0.84
2022-11-29T04:33:22.643Z,0.90
2022-11-29T04:34:29.865Z,0.92
2022-11-29T04:35:52.614Z,0.95
2022-11-29T04:36:56.689Z,0.97
2022-11-29T04:37:58.036Z,0.99
2022-11-29T04:39:08.157Z,0.96
2022-11-29T04:40:18.467Z,0.91
2022-11-29T04:41:19.849Z,0.87
2022-11-29T04:42:21.210Z,0.86
2022-11-29T04:43:39.416Z,0.80
2022-11-29T04:44:40.712Z,0.83
2022-11-29T04:45:42.074Z,0.75
2022-11-29T04:47:01.961Z,0.69
2022-11-29T04:48:32.831Z,0.73
2022-11-29T04:49:49.375Z,0.76
2022-11-29T04:50:59.752Z,0.75
2022-11-29T04:52:17.775Z,0.78
2022-11-29T04:53:22.203Z,0.76
2022-11-29T04:54:39.367Z,0.74
2022-11-29T04:55:49.255Z,0.75
2022-11-29T04:57:10.831Z,0.71
2022-11-29T04:58:15.208Z,0.66
2022-11-29T04:59:16.559Z,0.67
2022-11-29T05:00:20.255Z,0.69
2022-11-29T05:01:40.205Z,0.68
2022-11-29T05:02:55.384Z,0.63
2022-11-29T05:04:10.058Z,0.65
2022-11-29T05:05:21.560Z,0.69
2022-11-29T05:06:22.920Z,0.65
2022-11-29T05:07:36.393Z,0.65
2022-11-29T05:08:37.741Z,0.69
2022-11-29T05:09:57.780Z,0.73
2022-11-29T05:11:02.229Z,0.69
2022-11-29T05:12:10.861Z,0.63
2022-11-29T05:13:29.161Z,0.56
2022-11-29T05:14:35.994Z,0.62
2022-11-29T05:15:55.956Z,0.62
2022-11-29T05:17:07.307Z,0.66
2022-11-29T05:18:14.525Z,0.62
2022-11-29T05:19:27.916Z,0.65
2022-11-29T05:20:35.207Z,0.67
2022-11-29T05:21:39.542Z,0.60
2022-11-29T05:22:56.165Z,0.60
2022-11-29T05:24:06.459Z,0.62
2022-11-29T05:25:20.933Z,0.59
2022-11-29T05:26:35.630Z,0.64
2022-11-29T05:27:36.973Z,0.58
2022-11-29T05:28:48.620Z,0.63
2022-11-29T05:29:57.410Z,0.67
2022-11-29T05:31:22.126Z,0.66
2022-11-29T05:32:23.574Z,0.70
2022-11-29T05:33:27.642Z,0.71
2022-11-29T05:34:55.378Z,0.74
2022-11-29T05:36:06.765Z,0.69
2022-11-29T05:37:08.096Z,0.75
2022-11-29T05:38:21.655Z,0.73
2022-11-29T05:39:41.691Z,0.67
2022-11-29T05:41:01.652Z,0.70
2022-11-29T05:42:06.100Z,0.71
2022-11-29T05:43:07.463Z,0.72
2022-11-29T05:44:27.404Z,0.70
2022-11-29T05:45:32.414Z,0.75
2022-11-29T05:46:37.695Z,0.74
2022-11-29T05:47:45.189Z,0.75
2022-11-29T05:48:50.886Z,0.77
2022-11-29T05:49:59.866Z,0.83
2022-11-29T05:51:19.738Z,0.84
2022-11-29T05:52:43.987Z,0.84
2022-11-29T05:53:55.646Z,0.88
2022-11-29T05:55:06.048Z,0.91
2022-11-29T05:56:25.596Z,0.95
2022-11-29T05:57:32.725Z,1.01
2022-11-29T05:58:50.019Z,1.03
2022-11-29T05:59:51.638Z,1.03
2022-11-29T06:01:11.749Z,1.05
2022-11-29T06:02:19.249Z,1.05
2022-11-29T06:03:43.667Z,1.03
2022-11-29T06:04:56.809Z,1.04
2022-11-29T06:06:05.559Z,1.08
2022-11-29T06:07:12.360Z,1.14
2022-11-29T06:08:20.324Z,1.14
2022-11-29T06:09:26.168Z,1.12
2022-11-29T06:10:38.457Z,1.15
2022-11-29T06:11:45.873Z,1.16
2022-11-29T06:13:03.820Z,1.15
2022-11-29T06:14:25.332Z,1.12
2022-11-29T06:15:35.703Z,1.13
2022-11-29T06:16:47.751Z,1.08
2022-11-29T06:17:51.831Z,1.04
2022-11-29T06:19:23.963Z,1.06
2022-11-29T06:20:31.121Z,1.03
2022-11-29T06:21:32.450Z,1.06
2022-11-29T06:22:46.174Z,1.10
2022-11-29T06:23:47.496Z,1.13
2022-11-29T06:24:56.205Z,1.17
2022-11-29T06:26:03.547Z,1.16
2022-11-29T06:27:20.359Z,1.08
2022-11-29T06:28:40.244Z,1.06
2022-11-29T06:30:13.708Z,1.05
2022-11-29T06:31:25.325Z,1.04
2022-11-29T06:32:44.803Z,1.05
2022-11-29T06:33:46.157Z,1.07
2022-11-29T06:35:07.064Z,1.14
2022-11-29T06:36:16.414Z,1.24
2022-11-29T06:37:27.314Z,1.26
2022-11-29T06:38:29.742Z,1.30
2022-11-29T06:39:31.359Z,1.34
2022-11-29T06:40:32.809Z,1.33
2022-11-29T06:41:34.361Z,1.39
2022-11-29T06:42:35.737Z,1.43
2022-11-29T06:43:37.157Z,1.42
2022-11-29T06:44:38.743Z,1.47
2022-11-29T06:45:44.732Z,1.53
2022-11-29T06:46:47.696Z,1.52
2022-11-29T06:47:52.622Z,1.48
2022-11-29T06:49:08.785Z,1.55
2022-11-29T06:50:13.141Z,1.61
2022-11-29T06:51:20.919Z,1.62
2022-11-29T06:52:40.598Z,1.66
2022-11-29T06:53:45.066Z,1.73
2022-11-29T06:54:46.782Z,1.76
2022-11-29T06:55:54.448Z,1.76
2022-11-29T06:57:01.977Z,1.82
2022-11-29T06:58:03.318Z,1.88
2022-11-29T06:59:23.585Z,1.90
2022-11-29T07:00:25.013Z,1.92
2022-11-29T07:01:45.039Z,1.94
2022-11-29T07:03:15.832Z,1.95
2022-11-29T07:04:36.720Z,1.96
2022-11-29T07:05:39.624Z,1.98
2022-11-29T07:06:41.123Z,2.00
2022-11-29T07:07:42.720Z,2.01
2022-11-29T07:08:45.304Z,1.96
2022-11-29T07:09:47.561Z,1.97
2022-11-29T07:10:50.603Z,1.96
2022-11-29T07:11:52.082Z,2.00
2022-11-29T07:12:53.602Z,1.99
2022-11-29T07:13:55.102Z,1.95
2022-11-29T07:14:57.567Z,1.94
2022-11-29T07:16:06.652Z,1.96
2022-11-29T07:17:15.710Z,1.94
2022-11-29T07:18:27.232Z,1.92
2022-11-29T07:19:47.471Z,1.91
2022-11-29T07:20:51.901Z,1.96
2022-11-29T07:22:05.142Z,2.01
2022-11-29T07:23:12.638Z,2.03
2022-11-29T07:24:19.857Z,2.04
2022-11-29T07:25:21.201Z,2.05
2022-11-29T07:26:29.223Z,2.06
2022-11-29T07:27:33.688Z,2.05
2022-11-29T07:28:42.746Z,2.00
2022-11-29T07:29:55.042Z,1.89
2022-11-29T07:31:05.117Z,1.85
2022-11-29T07:32:25.775Z,1.80
2022-11-29T07:33:34.975Z,1.81
2022-11-29T07:34:45.460Z,1.85
2022-11-29T07:36:05.657Z,1.83
2022-11-29T07:37:13.821Z,1.86
2022-11-29T07:38:24.349Z,1.82
2022-11-29T07:39:34.148Z,1.85
2022-11-29T07:40:38.613Z,1.81
2022-11-29T07:41:58.439Z,1.81
2022-11-29T07:43:18.445Z,1.81
2022-11-29T07:44:26.372Z,1.81
2022-11-29T07:45:29.082Z,1.82
2022-11-29T07:46:30.516Z,1.87
2022-11-29T07:47:35.731Z,1.90
2022-11-29T07:48:37.668Z,1.94
2022-11-29T07:49:39.126Z,1.92
2022-11-29T07:50:40.682Z,1.88
2022-11-29T07:51:42.085Z,1.90
2022-11-29T07:52:43.463Z,1.94
2022-11-29T07:53:45.035Z,1.95
2022-11-29T07:54:46.691Z,1.91
2022-11-29T07:55:48.509Z,1.90
2022-11-29T07:56:49.906Z,1.89
2022-11-29T07:57:51.612Z,1.89
2022-11-29T07:58:53.026Z,1.89
2022-11-29T07:59:54.505Z,1.89
2022-11-29T08:00:56.002Z,1.87
2022-11-29T08:01:57.452Z,1.86
2022-11-29T08:02:58.836Z,1.88
2022-11-29T08:04:00.208Z,1.95
2022-11-29T08:05:01.581Z,1.91
2022-11-29T08:06:03.263Z,1.87
2022-11-29T08:07:04.616Z,1.82
2022-11-29T08:08:06.292Z,1.83
2022-11-29T08:09:07.724Z,1.89
2022-11-29T08:10:10.781Z,1.82
2022-11-29T08:11:12.509Z,1.79
2022-11-29T08:12:13.860Z,1.76
2022-11-29T08:13:15.253Z,1.76
2022-11-29T08:14:16.670Z,1.75
2022-11-29T08:15:21.339Z,1.70
2022-11-29T08:16:22.751Z,1.71
2022-11-29T08:17:24.219Z,1.71
2022-11-29T08:18:25.613Z,1.71
2022-11-29T08:19:27.010Z,1.74
2022-11-29T08:20:28.368Z,1.74
2022-11-29T08:21:29.782Z,1.76
2022-11-29T08:22:31.156Z,1.80
2022-11-29T08:23:32.557Z,1.82
2022-11-29T08:24:33.947Z,1.87
2022-11-29T08:25:35.320Z,1.88
2022-11-29T08:26:36.860Z,1.91
2022-11-29T08:27:38.301Z,1.94
2022-11-29T08:28:39.669Z,1.96
2022-11-29T08:29:41.057Z,2.01
2022-11-29T08:30:42.401Z,2.02
2022-11-29T08:31:44.177Z,2.04
2022-11-29T08:32:51.119Z,2.07
2022-11-29T08:33:52.831Z,2.10
2022-11-29T08:34:54.296Z,2.12
2022-11-29T08:35:55.969Z,2.16
2022-11-29T08:36:57.388Z,2.20
2022-11-29T08:37:58.764Z,2.20
2022-11-29T08:39:07.510Z,2.22
2022-11-29T08:40:10.858Z,2.21
2022-11-29T08:41:13.625Z,2.22
2022-11-29T08:42:15.032Z,2.28
2022-11-29T08:43:16.412Z,2.27
2022-11-29T08:44:17.950Z,2.25
2022-11-29T08:45:19.378Z,2.27
2022-11-29T08:46:20.835Z,2.29
2022-11-29T08:47:22.242Z,2.30
2022-11-29T08:48:23.627Z,2.34
2022-11-29T08:49:25.029Z,2.34
2022-11-29T08:50:26.562Z,2.37
2022-11-29T08:51:27.926Z,2.42
2022-11-29T08:52:33.945Z,2.42
2022-11-29T08:53:35.341Z,2.45
2022-11-29T08:54:36.705Z,2.49
2022-11-29T08:55:39.497Z,2.54
2022-11-29T08:58:04.464Z,2.59
2022-11-29T08:59:05.848Z,2.60
2022-11-29T09:00:07.697Z,2.65
2022-11-29T09:01:13.781Z,2.76
2022-11-29T09:02:15.216Z,2.84
2022-11-29T09:03:16.616Z,2.84
2022-11-29T09:04:17.947Z,2.95
2022-11-29T09:05:19.309Z,3.13
2022-11-29T09:06:20.774Z,3.35
2022-11-29T09:07:22.167Z,3.50
2022-11-29T09:08:23.606Z,3.70
2022-11-29T09:09:24.962Z,3.90
2022-11-29T09:10:26.342Z,4.11
2022-11-29T09:11:28.619Z,4.36
2022-11-29T09:12:30.272Z,4.45
2022-11-29T09:13:31.620Z,4.56
2022-11-29T09:14:33.046Z,4.73
2022-11-29T09:15:34.572Z,4.91
2022-11-29T09:16:37.093Z,5.03
2022-11-29T09:17:38.481Z,5.11
2022-11-29T09:18:48.504Z,5.24
2022-11-29T09:19:52.669Z,5.43
2022-11-29T09:20:54.040Z,5.43
2022-11-29T09:21:55.449Z,5.48
2022-11-29T09:22:58.324Z,5.59
2022-11-29T09:24:01.734Z,5.77
2022-11-29T09:25:03.180Z,6.09
2022-11-29T09:26:05.081Z,6.14
2022-11-29T09:27:06.449Z,6.05
2022-11-29T09:28:07.817Z,6.17
2022-11-29T09:29:10.232Z,6.37
2022-11-29T09:30:11.852Z,6.38
2022-11-29T09:31:14.319Z,6.47
2022-11-29T09:32:15.764Z,6.52
2022-11-29T09:33:17.136Z,6.58
2022-11-29T09:34:18.555Z,6.54
2022-11-29T09:35:19.981Z,6.55
2022-11-29T09:36:26.592Z,6.56
2022-11-29T09:37:29.704Z,6.63
2022-11-29T09:38:31.070Z,6.68
2022-11-29T09:39:32.454Z,6.54
2022-11-29T09:40:38.573Z,6.36
2022-11-29T09:42:04.699Z,6.27
2022-11-29T09:43:06.071Z,6.05
2022-11-29T09:44:13.227Z,5.92
2022-11-29T09:45:17.537Z,5.73
2022-11-29T09:46:22.056Z,5.58
2022-11-29T09:47:23.438Z,5.53
2022-11-29T09:48:30.358Z,5.53
2022-11-29T09:49:50.485Z,5.48
2022-11-29T09:51:07.467Z,5.44
2022-11-29T09:52:19.765Z,5.38
2022-11-29T09:53:24.157Z,5.27
2022-11-29T09:54:37.869Z,5.15
2022-11-29T09:55:45.972Z,5.07
2022-11-29T09:56:49.870Z,5.00
2022-11-29T09:57:53.224Z,5.01
2022-11-29T09:58:59.391Z,4.95
2022-11-29T10:00:13.921Z,4.93
2022-11-29T10:01:50.751Z,4.95
2022-11-29T10:02:58.444Z,4.91
2022-11-29T10:04:05.307Z,4.89
2022-11-29T10:05:10.407Z,4.85
2022-11-29T10:06:17.556Z,4.83
2022-11-29T10:07:26.324Z,4.84
2022-11-29T10:08:33.083Z,4.81
2022-11-29T10:09:38.908Z,4.82
2022-11-29T10:10:42.900Z,4.78
2022-11-29T10:11:55.395Z,4.73
2022-11-29T10:13:01.801Z,4.71
2022-11-29T10:14:10.245Z,4.61
2022-11-29T10:15:14.208Z,4.62
2022-11-29T10:16:36.508Z,4.67
2022-11-29T10:17:44.170Z,4.71
2022-11-29T10:18:45.507Z,4.69
2022-11-29T10:19:50.683Z,4.66
2022-11-29T10:20:54.472Z,4.69
2022-11-29T10:22:01.836Z,4.68
2022-11-29T10:23:12.293Z,4.68
2022-11-29T10:24:14.971Z,4.69
2022-11-29T10:25:22.822Z,4.70
2022-11-29T10:26:24.211Z,4.66
2022-11-29T10:27:25.576Z,4.70
2022-11-29T10:28:28.685Z,4.70
2022-11-29T10:29:30.065Z,4.70
2022-11-29T10:30:33.739Z,4.71
2022-11-29T10:31:36.837Z,4.73
2022-11-29T10:32:38.661Z,4.75
2022-11-29T10:33:40.961Z,4.72
2022-11-29T10:34:42.703Z,4.76
2022-11-29T10:35:44.916Z,4.83
2022-11-29T10:36:47.972Z,4.86
2022-11-29T10:38:22.331Z,4.91
2022-11-29T10:39:14.712Z,4.87
2022-11-29T10:40:19.105Z,4.87
2022-11-29T10:41:22.262Z,4.91
2022-11-29T10:42:24.899Z,4.93
2022-11-29T10:43:26.432Z,4.94
2022-11-29T10:44:28.532Z,4.97
2022-11-29T10:45:42.541Z,5.04
2022-11-29T10:46:43.921Z,5.03
2022-11-29T10:47:46.472Z,4.99
2022-11-29T10:48:47.979Z,5.00
2022-11-29T10:49:49.350Z,4.98
2022-11-29T10:50:51.700Z,5.03
2022-11-29T10:51:53.073Z,5.05
2022-11-29T10:53:00.646Z,5.12
2022-11-29T10:54:25.081Z,5.13
2022-11-29T10:55:27.656Z,5.20
2022-11-29T10:56:30.886Z,5.27
2022-11-29T10:57:32.313Z,5.38
2022-11-29T10:58:34.380Z,5.49
2022-11-29T10:59:35.729Z,5.60
2022-11-29T11:00:45.935Z,5.69
2022-11-29T11:01:47.533Z,5.81
2022-11-29T11:02:48.970Z,5.90
2022-11-29T11:03:53.158Z,5.87
2022-11-29T11:04:54.840Z,5.90
2022-11-29T11:05:58.341Z,5.98
2022-11-29T11:07:00.644Z,5.98
2022-11-29T11:08:02.062Z,6.04
2022-11-29T11:09:20.722Z,6.12
2022-11-29T11:10:25.736Z,6.18
2022-11-29T11:11:28.806Z,6.21
2022-11-29T11:12:31.603Z,6.22
2022-11-29T11:13:33.440Z,6.23
2022-11-29T11:14:36.614Z,6.24
2022-11-29T11:15:38.118Z,6.27
2022-11-29T11:16:39.584Z,6.37
2022-11-29T11:17:54.173Z,6.42
2022-11-29T11:18:55.605Z,6.37
2022-11-29T11:20:04.682Z,6.45
2022-11-29T11:21:09.036Z,6.47
2022-11-29T11:22:19.534Z,6.46
2022-11-29T11:23:23.704Z,6.50
2022-11-29T11:24:27.739Z,6.54
2022-11-29T11:25:37.167Z,6.59
2022-11-29T11:26:42.521Z,6.59
2022-11-29T11:27:43.939Z,6.60
2022-11-29T11:28:51.027Z,6.55
2022-11-29T11:29:52.787Z,6.53
2022-11-29T11:30:54.160Z,6.57
2022-11-29T11:31:56.835Z,6.60
2022-11-29T11:33:16.532Z,6.53
2022-11-29T11:34:24.227Z,6.50
2022-11-29T11:35:25.622Z,6.59
2022-11-29T11:36:27.249Z,6.65
2022-11-29T11:37:30.093Z,6.59
2022-11-29T11:38:31.780Z,6.59
2022-11-29T11:39:33.116Z,6.58
2022-11-29T11:40:34.541Z,6.58
2022-11-29T11:41:38.156Z,6.63
2022-11-29T11:42:39.867Z,6.65
2022-11-29T11:43:41.386Z,6.72
2022-11-29T11:44:50.147Z,6.68
2022-11-29T11:45:53.329Z,6.64
2022-11-29T11:46:55.135Z,6.54
2022-11-29T11:47:58.184Z,6.46
2022-11-29T11:48:59.584Z,6.39
2022-11-29T11:50:00.936Z,6.36
2022-11-29T11:51:02.355Z,6.38
2022-11-29T11:52:06.260Z,6.28
2022-11-29T11:53:18.031Z,6.29
2022-11-29T11:54:20.247Z,6.29
2022-11-29T11:55:26.933Z,6.24
2022-11-29T11:56:33.377Z,6.23
2022-11-29T11:57:34.737Z,6.23
2022-11-29T11:58:38.940Z,6.22
2022-11-29T11:59:40.476Z,6.17
2022-11-29T12:02:23.720Z,5.99
2022-11-29T12:03:25.168Z,5.97
2022-11-29T12:04:26.483Z,5.93
2022-11-29T12:05:27.919Z,5.83
2022-11-29T12:06:41.280Z,5.79
2022-11-29T12:08:08.547Z,5.79
2022-11-29T12:09:28.940Z,5.66
2022-11-29T12:10:31.082Z,5.71
2022-11-29T12:11:37.682Z,5.61
2022-11-29T12:12:41.126Z,5.56
2022-11-29T12:13:47.710Z,5.57
2022-11-29T12:15:01.266Z,5.54
2022-11-29T12:16:07.625Z,5.49
2022-11-29T12:17:27.800Z,5.45
2022-11-29T12:18:48.725Z,5.41
2022-11-29T12:20:08.836Z,5.22
2022-11-29T12:21:14.774Z,5.16
2022-11-29T12:22:19.613Z,5.14
2022-11-29T12:23:39.136Z,5.19
2022-11-29T12:24:44.255Z,5.18
2022-11-29T12:25:57.835Z,5.12
2022-11-29T12:27:02.909Z,5.11
2022-11-29T12:28:08.677Z,5.07
2022-11-29T12:29:12.923Z,5.10
2022-11-29T12:30:14.726Z,5.05
2022-11-29T12:31:19.135Z,5.06
2022-11-29T12:32:30.400Z,5.13
2022-11-29T12:33:31.755Z,5.15
2022-11-29T12:34:48.752Z,5.12
2022-11-29T12:35:53.361Z,5.11
2022-11-29T12:37:00.750Z,5.10
2022-11-29T12:38:14.905Z,5.10
2022-11-29T12:39:16.261Z,5.11
2022-11-29T12:40:26.426Z,5.13
2022-11-29T12:41:27.784Z,5.14
2022-11-29T12:42:32.145Z,5.08
2022-11-29T12:43:51.971Z,5.06
2022-11-29T12:44:58.677Z,5.06
2022-11-29T12:46:23.432Z,5.07
2022-11-29T12:47:40.196Z,5.06
2022-11-29T12:49:10.776Z,5.10
2022-11-29T12:50:21.545Z,5.11
2022-11-29T12:51:33.537Z,5.07
2022-11-29T12:52:51.206Z,5.12
2022-11-29T12:53:58.569Z,5.11
2022-11-29T12:55:07.918Z,5.11
2022-11-29T12:56:12.329Z,5.10
2022-11-29T12:57:32.523Z,5.06
2022-11-29T12:58:52.357Z,5.06
2022-11-29T12:59:53.698Z,5.11
2022-11-29T13:01:10.695Z,5.14
2022-11-29T13:02:29.456Z,5.18
2022-11-29T13:03:38.279Z,5.20
2022-11-29T13:04:45.709Z,5.18
2022-11-29T13:05:54.397Z,5.17
2022-11-29T13:07:01.889Z,5.18
2022-11-29T13:08:22.630Z,5.16
2022-11-29T13:09:27.090Z,5.11
2022-11-29T13:10:47.238Z,5.14
2022-11-29T13:12:04.088Z,5.16
2022-11-29T13:13:31.804Z,5.14
2022-11-29T13:14:43.653Z,5.09
2022-11-29T13:16:08.422Z,5.09
2022-11-29T13:17:33.271Z,5.17
2022-11-29T13:18:43.686Z,5.15
2022-11-29T13:19:50.138Z,5.18
2022-11-29T13:20:51.477Z,5.22
2022-11-29T13:22:11.743Z,5.17
2022-11-29T13:23:13.093Z,5.21
2022-11-29T13:24:42.531Z,5.19
2022-11-29T13:25:46.992Z,5.25
2022-11-29T13:26:49.220Z,5.30
2022-11-29T13:28:05.086Z,5.30
2022-11-29T13:29:07.528Z,5.32
2022-11-29T13:30:13.581Z,5.34
2022-11-29T13:31:22.226Z,5.33
2022-11-29T13:32:37.096Z,5.30
2022-11-29T13:33:47.420Z,5.23
2022-11-29T13:34:50.660Z,5.24
2022-11-29T13:35:57.558Z,5.25
2022-11-29T13:37:14.301Z,5.20
2022-11-29T13:38:22.568Z,5.22
2022-11-29T13:39:42.579Z,5.14
2022-11-29T13:40:49.706Z,5.19
2022-11-29T13:41:57.380Z,5.19
2022-11-29T13:43:02.750Z,5.11
2022-11-29T13:44:11.368Z,5.12
2022-11-29T13:45:24.304Z,5.10
2022-11-29T13:46:44.333Z,5.06
2022-11-29T13:47:50.286Z,5.05
2022-11-29T13:48:52.945Z,5.04
2022-11-29T13:49:57.368Z,5.04
2022-11-29T13:51:05.690Z,5.02
2022-11-29T13:52:07.129Z,5.03
2022-11-29T13:53:13.156Z,5.05
2022-11-29T13:54:31.733Z,5.05
2022-11-29T13:55:33.079Z,5.04
2022-11-29T13:56:36.896Z,5.00
2022-11-29T13:58:15.072Z,4.95
2022-11-29T13:59:16.249Z,4.90
2022-11-29T14:00:40.682Z,4.95
2022-11-29T14:01:46.331Z,4.90
2022-11-29T14:02:47.847Z,4.89
2022-11-29T14:04:18.720Z,4.84
2022-11-29T14:05:28.060Z,4.86
2022-11-29T14:06:34.009Z,4.83
2022-11-29T14:07:55.348Z,4.84
2022-11-29T14:09:19.918Z,4.84
2022-11-29T14:10:28.528Z,4.77
2022-11-29T14:11:44.592Z,4.82
2022-11-29T14:12:50.621Z,4.83
2022-11-29T14:13:56.286Z,4.81
2022-11-29T14:15:02.929Z,4.80
2022-11-29T14:16:05.832Z,4.75
2022-11-29T14:17:27.176Z,4.73
2022-11-29T14:18:37.585Z,4.69
2022-11-29T14:19:38.950Z,4.70
2022-11-29T14:20:40.323Z,4.66
2022-11-29T14:21:59.872Z,4.59
2022-11-29T14:23:04.073Z,4.58
2022-11-29T14:24:24.324Z,4.55
2022-11-29T14:25:50.669Z,4.58
2022-11-29T14:26:47.095Z,4.52
2022-11-29T14:27:54.247Z,4.50
2022-11-29T14:28:57.253Z,4.46
2022-11-29T14:29:58.621Z,4.48
2022-11-29T14:31:07.140Z,4.46
2022-11-29T14:32:20.193Z,4.39
2022-11-29T14:33:39.849Z,4.36
2022-11-29T14:34:43.766Z,4.40
2022-11-29T14:36:08.349Z,4.41
2022-11-29T14:37:19.211Z,4.40
2022-11-29T14:38:30.815Z,4.38
2022-11-29T14:39:47.138Z,4.33
2022-11-29T14:40:59.180Z,4.36
2022-11-29T14:42:20.031Z,4.40
2022-11-29T14:43:35.311Z,4.34
2022-11-29T14:44:42.737Z,4.40
2022-11-29T14:45:44.271Z,4.31
2022-11-29T14:46:46.362Z,4.22
2022-11-29T14:47:48.765Z,4.24
2022-11-29T14:48:56.339Z,4.22
2022-11-29T14:49:59.545Z,4.18
2022-11-29T14:51:08.197Z,4.09
2022-11-29T14:52:09.525Z,4.08
2022-11-29T14:53:32.643Z,4.08
2022-11-29T14:54:34.410Z,4.01
2022-11-29T14:55:36.743Z,4.06
2022-11-29T14:56:39.626Z,4.12
2022-11-29T14:57:46.980Z,4.14
2022-11-29T14:58:48.659Z,4.10
2022-11-29T14:59:51.517Z,4.04